Latest Weather Observations for Melbourne Airport

IDV60801

Issued at 9:52 pm EST Monday 18 June 2018 (issued every 10 minutes, with the page automatically refreshed every 10 minutes)

About weather observations | Map of weather stations | Latest weather observations for VIC | Other Formats
Station Details ID: 086282 Name: MELBOURNE AIRPORT Lat: -37.67 Lon: 144.83 Height: 113.4 m
Data from the previous 72 hours. | See also: Recent months at Melbourne Airport
Date/Time
EST
Temp
°C
App
Temp
°C
Dew
Point
°C
Rel
Hum
%
Delta-T
°C
Wind Press
QNH
hPa
Press
MSL
hPa
Rain since
9am
mm
Dir  Spd
km/h
Gust
km/h
Spd
kts
Gust
kts
18/09:30pm 5.9 3.3 4.0 88 0.8 SW 7 7 4 4 1028.2 1028.4 1.8
18/09:00pm 5.7 3.0 3.8 87 0.8 SW 7 7 4 4 1028.2 1028.4 1.8
18/08:30pm 6.1 3.5 4.0 86 0.9 SSW 7 7 4 4 1028.2 1028.4 1.8
18/08:00pm 6.5 3.5 4.2 85 1.0 SW 9 9 5 5 1028.1 1028.3 1.8
18/07:30pm 6.3 3.4 4.4 88 0.8 SW 9 11 5 6 1027.9 1028.1 1.8
18/07:00pm 7.6 5.1 4.9 83 1.2 SSW 7 9 4 5 1027.7 1027.8 1.8
18/06:30pm 9.0 5.8 5.0 76 1.8 S 11 13 6 7 1027.4 1027.5 1.8
18/06:00pm 8.9 6.8 6.7 86 1.0 SW 7 11 4 6 1027.4 1027.5 1.8
18/05:30pm 9.3 6.9 7.2 87 1.0 SSE 9 11 5 6 1027.2 1027.3 1.8
18/05:00pm 10.0 6.9 5.4 73 2.1 S 11 13 6 7 1027.2 1027.3 1.8
18/04:30pm 10.0 6.7 6.3 78 1.7 SSW 13 15 7 8 1027.0 1027.1 1.8
18/04:00pm 10.4 6.5 5.4 71 2.3 S 15 22 8 12 1026.7 1026.9 1.8
18/03:30pm 10.4 6.1 5.1 69 2.4 SSW 17 22 9 12 1026.4 1026.6 1.8
18/03:00pm 10.3 6.4 6.9 79 1.6 SSW 17 26 9 14 1026.2 1026.4 1.8
18/02:30pm 10.5 6.9 6.9 78 1.7 SW 15 24 8 13 1026.1 1026.3 1.8
18/02:00pm 9.9 6.3 6.9 81 1.4 SSW 15 20 8 11 1026.2 1026.4 1.8
18/01:30pm 9.5 6.6 8.0 90 0.7 SSW 13 17 7 9 1026.4 1026.6 1.8
18/01:21pm 9.4 6.5 8.2 92 0.6 SW 13 19 7 10 1026.4 1026.6 1.8
18/01:10pm 9.2 4.9 7.9 92 0.6 SSW 20 26 11 14 1026.5 1026.7 1.8
18/01:00pm 9.7 5.9 7.6 87 1.0 SSW 17 24 9 13 1026.5 1026.7 1.8
18/12:30pm 9.8 6.8 7.7 87 1.0 SSW 13 19 7 10 1026.6 1026.8 1.8
18/12:00pm 9.0 6.5 8.2 95 0.4 SSW 11 15 6 8 1027.0 1027.1 1.8
18/11:46am 8.6 4.9 7.8 95 0.4 SSW 17 22 9 12 1027.0 1027.1 1.8
18/11:30am 8.7 5.1 8.3 97 0.2 SSW 17 22 9 12 1027.1 1027.2 1.8
18/11:00am 8.5 5.6 8.1 97 0.2 SSW 13 19 7 10 1027.3 1027.4 1.6
18/10:43am 8.5 4.8 8.1 97 0.2 SSW 17 22 9 12 1027.5 1027.6 1.0
18/10:30am 8.4 5.1 8.0 97 0.2 SSW 15 20 8 11 1027.4 1027.5 1.0
18/10:00am 8.2 4.5 7.8 97 0.2 SW 17 28 9 15 1027.2 1027.3 0.6
18/09:48am 8.5 4.3 8.1 97 0.2 SSW 20 30 11 16 1026.8 1027.0 0.2
18/09:30am 8.8 4.8 8.4 97 0.2 SSW 19 24 10 13 1026.6 1026.8 0.2
18/09:00am 8.4 4.1 8.0 97 0.2 SW 20 26 11 14 1026.2 1026.4 35.2
18/08:30am 8.3 4.6 8.1 99 0.1 SSW 17 26 9 14 1025.9 1026.1 35.2
18/08:00am 8.2 4.1 7.8 97 0.2 SW 19 26 10 14 1025.6 1025.8 35.2
18/07:54am 8.2 4.1 7.8 97 0.2 SW 19 26 10 14 1025.5 1025.7 35.2
18/07:35am 8.0 4.3 7.8 99 0.1 SW 17 24 9 13 1025.3 1025.5 35.2
18/07:30am 7.9 4.1 7.7 99 0.1 SW 17 24 9 13 1025.2 1025.4 35.2
18/07:00am 8.1 4.3 7.7 97 0.2 SW 17 24 9 13 1024.8 1025.0 35.2
18/06:30am 8.0 4.2 7.6 97 0.2 SW 17 22 9 12 1024.6 1024.8 35.2
18/06:11am 8.0 4.2 7.6 97 0.2 SW 17 22 9 12 1024.5 1024.7 35.0
18/06:00am 8.0 5.0 7.6 97 0.2 SW 13 19 7 10 1024.3 1024.5 35.0
18/05:30am 7.9 4.0 7.3 96 0.3 SW 17 24 9 13 1024.2 1024.4 35.0
18/05:00am 8.2 3.7 7.1 93 0.5 SW 20 30 11 16 1023.8 1024.0 35.0
18/04:30am 8.2 4.0 7.3 94 0.4 SW 19 26 10 14 1023.5 1023.7 34.8
18/04:00am 8.0 3.5 7.1 94 0.4 SW 20 26 11 14 1023.5 1023.7 34.8
18/03:30am 7.9 3.6 7.0 94 0.4 SSW 19 26 10 14 1023.4 1023.6 34.4
18/03:00am 7.6 3.2 6.7 94 0.4 SW 19 26 10 14 1023.2 1023.4 34.4
18/02:30am 7.6 3.0 6.7 94 0.4 SW 20 26 11 14 1023.1 1023.3 34.4
18/02:00am 7.7 3.2 6.8 94 0.4 SW 20 26 11 14 1022.9 1023.1 34.4
18/01:30am 7.8 3.5 6.9 94 0.4 SW 19 24 10 13 1022.5 1022.7 34.4
18/01:00am 8.2 3.8 7.6 96 0.3 SSW 20 32 11 17 1022.4 1022.6 34.2
18/12:45am 8.3 3.5 7.5 95 0.4 SW 22 28 12 15 1022.6 1022.8 34.2
18/12:30am 8.3 3.2 7.5 95 0.4 SW 24 30 13 16 1022.4 1022.6 33.8
18/12:16am 8.5 3.8 7.7 95 0.4 SW 22 35 12 19 1022.6 1022.8 33.8
18/12:00am 8.5 4.2 7.9 96 0.3 SW 20 30 11 16 1022.7 1022.9 33.8
 
Date/Time
EST
Temp
°C
App
Temp
°C
Dew
Point
°C
Rel
Hum
%
Delta-T
°C
Wind Press
QNH
hPa
Press
MSL
hPa
Rain since
9am
mm
Dir  Spd
km/h
Gust
km/h
Spd
kts
Gust
kts
17/11:55pm 8.5 3.8 7.7 95 0.4 SW 22 30 12 16 1022.7 1022.9 32.8
17/11:30pm 8.7 3.7 7.9 95 0.4 SW 24 32 13 17 1022.3 1022.5 31.8
17/11:00pm 8.8 3.8 8.2 96 0.3 SW 24 30 13 16 1022.3 1022.5 31.4
17/10:30pm 9.0 4.8 8.2 95 0.4 SW 20 28 11 15 1022.0 1022.2 31.4
17/10:00pm 9.1 3.8 8.5 96 0.3 SW 26 41 14 22 1021.7 1021.9 31.0
17/09:50pm 9.3 4.7 8.3 93 0.5 SW 22 41 12 22 1021.7 1021.9 30.6
17/09:30pm 9.5 4.2 8.5 93 0.5 SW 26 32 14 17 1021.4 1021.6 29.8
17/09:00pm 9.7 4.5 8.9 95 0.4 SW 26 33 14 18 1021.1 1021.3 29.6
17/08:30pm 9.8 4.3 9.0 95 0.4 SSW 28 39 15 21 1020.8 1021.0 29.6
17/08:00pm 9.8 5.8 9.0 95 0.4 SSW 20 30 11 16 1020.4 1020.5 29.4
17/07:43pm 9.7 4.6 9.1 96 0.3 SSW 26 37 14 20 1020.4 1020.5 28.2
17/07:30pm 9.7 4.9 8.9 95 0.4 SSW 24 37 13 20 1020.1 1020.2 27.4
17/07:20pm 10.0 4.4 8.6 91 0.7 SSW 28 39 15 21 1019.9 1020.0 27.2
17/07:06pm 10.0 5.1 8.6 91 0.7 SSW 24 30 13 16 1019.8 1019.9 26.6
17/07:00pm 10.0 5.1 8.6 91 0.7 SSW 24 30 13 16 1019.6 1019.7 26.2
17/06:36pm 10.1 4.4 8.5 90 0.8 SSW 28 46 15 25 1019.2 1019.3 26.0
17/06:30pm 10.2 5.3 8.6 90 0.8 SSW 24 33 13 18 1019.1 1019.2 25.8
17/06:00pm 10.2 4.5 8.4 89 0.9 S 28 37 15 20 1018.5 1018.6 25.6
17/05:30pm 10.6 5.0 8.8 89 0.9 SSW 28 43 15 23 1018.1 1018.2 25.0
17/05:00pm 10.9 4.3 8.5 85 1.2 SSW 33 52 18 28 1017.4 1017.6 25.0
17/04:57pm 11.0 4.6 8.4 84 1.3 SSW 32 52 17 28 1017.3 1017.5 25.0
17/04:30pm 10.7 5.5 8.9 89 0.9 SSW 26 33 14 18 1017.2 1017.4 25.0
17/04:17pm 10.8 4.5 9.0 89 0.9 SSW 32 46 17 25 1017.0 1017.2 25.0
17/04:00pm 10.7 4.9 9.3 91 0.7 SSW 30 44 16 24 1016.6 1016.8 24.8
17/03:44pm 10.6 5.4 9.0 90 0.8 SSW 26 39 14 21 1016.3 1016.5 24.2
17/03:30pm 10.6 4.2 9.2 91 0.7 SSW 33 50 18 27 1016.0 1016.2 22.8
17/03:00pm 11.2 3.9 8.6 84 1.3 SSW 37 59 20 32 1015.5 1015.7 22.8
17/02:36pm 11.2 3.6 9.0 86 1.1 SSW 39 57 21 31 1015.0 1015.2 22.6
17/02:30pm 11.1 2.6 8.7 85 1.2 SSW 43 57 23 31 1014.8 1015.0 22.6
17/02:18pm 11.5 5.0 8.9 84 1.3 SSW 33 52 18 28 1014.7 1014.9 22.6
17/02:10pm 11.2 4.4 9.2 87 1.0 SSW 35 52 19 28 1014.5 1014.7 22.6
17/02:00pm 10.7 4.9 9.5 92 0.6 S 30 52 16 28 1014.3 1014.5 22.4
17/01:49pm 11.0 3.0 9.0 87 1.0 SSW 41 59 22 32 1014.4 1014.6 21.4
17/01:30pm 10.7 2.2 8.7 87 1.0 SSW 43 57 23 31 1014.2 1014.4 21.4
17/01:18pm 10.6 2.5 8.8 89 0.9 SSW 41 63 22 34 1014.2 1014.4 21.4
17/01:14pm 10.8 3.1 8.8 87 1.0 SSW 39 52 21 28 1014.2 1014.4 20.6
17/01:00pm 10.5 3.2 8.9 90 0.8 SSW 37 52 20 28 1014.3 1014.5 20.6
17/12:45pm 10.1 4.2 9.1 93 0.5 SSW 30 48 16 26 1014.3 1014.5 20.0
17/12:42pm 10.4 5.6 8.8 90 0.8 SSW 24 43 13 23 1014.2 1014.4 19.0
17/12:30pm 10.4 4.0 8.6 89 0.9 SSW 32 50 17 27 1014.3 1014.5 18.8
17/12:27pm 10.3 4.7 8.7 90 0.8 SW 28 46 15 25 1013.9 1014.1 18.8
17/12:24pm 9.8 4.3 9.2 96 0.3 SW 28 41 15 22 1014.1 1014.3 18.4
17/12:14pm 9.9 4.7 8.9 93 0.5 SSW 26 44 14 24 1013.8 1014.0 18.0
17/12:00pm 9.5 6.0 8.7 95 0.4 S 17 33 9 18 1013.8 1014.0 17.4
17/11:55am 9.2 6.1 8.8 97 0.2 S 15 20 8 11 1013.9 1014.1 17.4
17/11:43am 9.3 4.1 8.7 96 0.3 SSW 26 39 14 21 1013.9 1014.1 16.8
17/11:30am 9.3 2.6 8.1 92 0.6 S 33 56 18 30 1014.0 1014.2 14.2
17/11:25am 9.8 2.2 7.5 85 1.1 SSE 37 56 20 30 1013.8 1014.0 13.0
17/11:22am 9.4 4.4 6.6 83 1.3 SSW 22 37 12 20 1013.5 1013.6 12.0
17/11:17am 9.2 3.5 8.4 95 0.4 SW 28 46 15 25 1014.0 1014.2 7.0
17/11:12am 9.3 2.6 8.3 93 0.5 SW 33 46 18 25 1013.7 1013.9 5.4
17/11:00am 9.2 1.4 8.4 95 0.4 WSW 39 50 21 27 1013.4 1013.5 1.8
17/10:46am 9.3 1.8 7.8 90 0.7 WSW 37 50 20 27 1013.2 1013.3 0.6
17/10:33am 9.3 1.5 8.1 92 0.6 WSW 39 57 21 31 1013.2 1013.3 0.6
17/10:30am 9.5 1.3 8.3 92 0.6 WSW 41 57 22 31 1013.2 1013.3 0.6
17/10:00am 9.2 0.2 7.3 88 0.9 WSW 44 56 24 30 1013.2 1013.3 0.2
17/09:34am 8.9 0.6 7.6 91 0.6 WSW 41 59 22 32 1012.9 1013.0 0.2
17/09:30am 8.8 0.1 7.5 91 0.6 WSW 43 59 23 32 1012.8 1012.9 0.2
17/09:28am 8.8 0.4 7.5 91 0.6 WSW 41 59 22 32 1012.7 1012.8 0.2
17/09:01am 8.7 1.4 7.4 91 0.6 SW 35 54 19 29 1012.8 1012.9 0.0
17/09:00am 8.7 1.1 7.4 91 0.6 SW 37 54 20 29 1012.8 1012.9 19.4
17/08:48am 8.7 2.0 7.4 91 0.6 WSW 32 54 17 29 1012.9 1013.0 18.2
17/08:33am 8.4 2.5 7.3 93 0.5 WSW 28 46 15 25 1012.6 1012.7 16.8
17/08:30am 8.6 3.0 7.1 90 0.7 WSW 26 35 14 19 1012.5 1012.6 16.6
17/08:00am 8.3 0.7 7.5 95 0.4 WSW 37 50 20 27 1012.5 1012.6 14.0
17/07:46am 8.5 0.4 7.0 90 0.7 WSW 39 59 21 32 1012.1 1012.2 13.0
17/07:38am 8.4 -0.1 7.1 91 0.6 WSW 41 59 22 32 1012.0 1012.1 13.0
17/07:30am 8.3 1.0 7.2 93 0.5 WSW 35 48 19 26 1011.7 1011.8 12.8
17/07:24am 8.4 1.1 7.1 91 0.6 WSW 35 46 19 25 1011.9 1012.0 12.2
17/07:00am 8.4 1.6 6.9 90 0.7 W 32 43 17 23 1011.6 1011.7 11.0
17/06:30am 8.2 1.4 6.9 91 0.6 WSW 32 41 17 22 1011.7 1011.8 10.0
17/06:00am 8.1 1.1 6.8 91 0.6 W 33 41 18 22 1011.3 1011.4 9.2
17/05:30am 7.9 1.0 6.6 91 0.6 W 32 39 17 21 1011.0 1011.1 8.2
17/05:00am 7.5 0.4 6.4 93 0.5 W 33 43 18 23 1011.3 1011.4 7.2
17/04:30am 7.3 0.1 6.0 91 0.6 W 33 41 18 22 1011.3 1011.4 6.6
17/04:00am 7.3 0.1 6.0 91 0.6 W 33 46 18 25 1011.5 1011.6 5.8
17/03:30am 7.4 0.7 5.6 88 0.8 W 30 39 16 21 1011.5 1011.6 4.8
17/03:00am 7.1 0.4 5.8 91 0.6 W 30 37 16 20 1011.5 1011.6 4.6
17/02:30am 7.0 -0.1 5.7 91 0.6 W 32 39 17 21 1011.7 1011.8 3.6
17/02:00am 7.1 0.8 5.5 89 0.7 W 28 33 15 18 1011.9 1012.0 2.2
17/01:30am 6.8 0.8 5.5 91 0.6 W 26 32 14 17 1011.8 1011.9 1.6
17/01:00am 7.1 0.2 4.8 85 1.0 W 30 37 16 20 1011.8 1011.9 0.6
17/12:30am 7.8 1.1 3.9 76 1.7 W 28 37 15 20 1011.9 1012.0 0.0
17/12:00am 7.7 1.0 3.5 75 1.8 W 28 35 15 19 1012.1 1012.2 0.0
 
Date/Time
EST
Temp
°C
App
Temp
°C
Dew
Point
°C
Rel
Hum
%
Delta-T
°C
Wind Press
QNH
hPa
Press
MSL
hPa
Rain since
9am
mm
Dir  Spd
km/h
Gust
km/h
Spd
kts
Gust
kts
16/11:30pm 7.5 1.1 3.3 75 1.8 W 26 39 14 21 1012.3 1012.4 0.0
16/11:00pm 7.0 0.9 3.0 76 1.7 WNW 24 35 13 19 1012.4 1012.5 0.0
16/10:30pm 6.6 1.2 2.5 75 1.7 W 20 28 11 15 1012.5 1012.6 0.0
16/10:00pm 6.2 1.4 2.6 78 1.5 WNW 17 22 9 12 1012.5 1012.6 0.0
16/09:30pm 6.7 2.3 2.6 75 1.7 WNW 15 20 8 11 1012.6 1012.7 0.0
16/09:00pm 6.7 1.4 2.9 77 1.6 WNW 20 28 11 15 1012.5 1012.6 0.0
16/08:30pm 7.5 2.3 3.3 75 1.8 W 20 26 11 14 1012.8 1012.9 0.0
16/08:00pm 7.4 2.7 3.2 75 1.8 W 17 24 9 13 1013.0 1013.1 0.0
16/07:30pm 7.3 2.2 3.3 76 1.7 W 19 26 10 14 1013.0 1013.1 0.0
16/07:00pm 8.1 2.0 2.9 70 2.2 W 24 33 13 18 1013.1 1013.2 0.0
16/06:30pm 7.9 2.8 3.2 72 2.0 W 19 28 10 15 1012.7 1012.8 0.0
16/06:00pm 7.7 2.6 3.0 72 2.0 W 19 26 10 14 1012.4 1012.5 0.0
16/05:30pm 8.7 3.0 2.6 65 2.6 W 22 30 12 16 1012.3 1012.4 0.0
16/05:00pm 9.7 3.5 2.2 59 3.2 WSW 24 33 13 18 1012.1 1012.2 0.0
16/04:30pm 10.0 4.5 2.0 57 3.4 W 20 28 11 15 1011.9 1012.0 0.0
16/04:00pm 10.9 4.7 2.0 54 3.8 W 24 33 13 18 1011.7 1011.8 0.0
16/03:30pm 11.9 4.8 1.6 49 4.4 W 28 37 15 20 1011.6 1011.7 0.0
16/03:00pm 11.8 3.7 0.9 47 4.6 W 33 41 18 22 1011.5 1011.6 0.0
16/02:30pm 11.5 4.0 1.4 50 4.3 W 30 37 16 20 1011.6 1011.7 0.0
16/02:00pm 11.6 4.5 1.5 50 4.3 W 28 37 15 20 1011.8 1011.9 0.0
16/01:30pm 11.0 4.3 1.6 52 4.0 WNW 26 39 14 21 1011.9 1012.0 0.0
16/01:00pm 12.0 4.9 1.2 47 4.6 WNW 28 43 15 23 1012.2 1012.3 0.0
16/12:30pm 11.3 3.5 1.7 51 4.1 WNW 32 39 17 21 1012.6 1012.7 0.0
16/12:00pm 11.4 4.3 1.2 49 4.3 W 28 35 15 19 1012.8 1012.9 0.0
16/11:30am 11.5 6.2 1.7 51 4.2 NW 19 30 10 16 1013.1 1013.2 0.0
16/11:00am 10.4 4.7 2.8 59 3.3 NNW 22 32 12 17 1013.5 1013.6 0.0
16/10:30am 9.9 3.8 3.0 62 3.0 NW 24 33 13 18 1013.8 1014.0 0.0
16/10:00am 9.2 2.7 2.6 63 2.8 NNW 26 35 14 19 1013.7 1013.9 0.0
16/09:30am 8.3 2.2 2.9 69 2.3 NNW 24 32 13 17 1013.7 1013.9 0.0
16/09:00am 7.3 0.0 2.5 71 2.0 NNW 30 35 16 19 1013.6 1013.7 0.6
16/08:30am 6.1 0.8 3.0 80 1.3 N 20 26 11 14 1013.7 1013.9 0.6
16/08:00am 5.6 -0.2 2.2 79 1.4 N 22 26 12 14 1013.4 1013.5 0.6
16/07:30am 6.9 0.6 1.8 70 2.1 NNW 24 30 13 16 1013.2 1013.3 0.6
16/07:00am 7.3 1.0 1.7 67 2.3 NNW 24 33 13 18 1013.2 1013.3 0.6
16/06:30am 5.7 0.8 1.7 75 1.6 N 17 20 9 11 1013.1 1013.2 0.6
16/06:00am 6.8 1.5 1.6 69 2.1 NNW 19 26 10 14 1012.8 1012.9 0.6
16/05:30am 6.8 1.8 1.4 68 2.2 NNW 17 24 9 13 1012.7 1012.8 0.6
16/05:00am 5.7 0.8 2.0 77 1.5 N 17 19 9 10 1012.7 1012.8 0.6
16/04:30am 5.7 0.4 1.7 75 1.6 N 19 22 10 12 1012.5 1012.6 0.6
16/04:00am 7.0 2.0 1.3 67 2.3 NW 17 24 9 13 1012.4 1012.5 0.6
16/03:30am 7.3 1.7 1.4 66 2.4 W 20 30 11 16 1012.4 1012.5 0.6
16/03:00am 7.8 0.3 1.5 64 2.6 W 30 39 16 21 1012.4 1012.5 0.6
16/02:30am 7.4 1.1 1.5 66 2.4 W 24 32 13 17 1012.6 1012.7 0.6
16/02:00am 7.6 0.4 0.9 62 2.7 W 28 35 15 19 1012.4 1012.5 0.6
16/01:30am 7.5 -0.3 1.4 65 2.5 W 32 41 17 22 1012.4 1012.5 0.6
16/01:00am 7.6 0.9 1.5 65 2.5 W 26 35 14 19 1012.6 1012.7 0.6
16/12:30am 7.2 0.1 1.6 67 2.3 W 28 37 15 20 1012.7 1012.8 0.6
16/12:00am 7.6 0.1 1.5 65 2.5 W 30 39 16 21 1012.8 1012.9 0.6
 
Date/Time
EST
Temp
°C
App
Temp
°C
Dew
Point
°C
Rel
Hum
%
Delta-T
°C
Wind Press
QNH
hPa
Press
MSL
hPa
Rain since
9am
mm
Dir  Spd
km/h
Gust
km/h
Spd
kts
Gust
kts
15/11:30pm 7.6 -0.4 1.8 67 2.4 W 33 46 18 25 1012.7 1012.8 0.6
15/11:00pm 7.4 -0.9 2.4 70 2.1 W 35 44 19 24 1012.5 1012.6 0.6
15/10:30pm 7.3 -0.4 2.2 70 2.1 W 32 41 17 22 1012.3 1012.4 0.6
15/10:00pm 7.3 -0.9 2.5 71 2.0 W 35 44 19 24 1012.4 1012.5 0.6

Other Formats:

Comma delimited format used in spreadsheet applications
http://www.bom.gov.au/fwo/IDV60801/IDV60801.94866.axf

JavaScript Object Notation format (JSON) in row-major order
http://www.bom.gov.au/fwo/IDV60801/IDV60801.94866.json